• Join FlightAware (Why Join?)
  • Login
  • US Flag GB Flag 
10:06 EDT


 

Airport Tracker/Info


-or-


 

Live Flight TrackerFlight Track Log ✈ PDT4314 ✈ 20-Feb-2014 ✈ KBGM - KPHL

Flight Track Log - Related Links

Times and Time Zones

All times are in EST time to prevent confusion due to time zone crossing. See the PDT4314 flight status page for this flight to view local times or setup timezone preferences in your user account.

Time Position Orientation Groundspeed Altitude Reporting Facility
EST Latitude Longitude Course Direction KTS MPH feet Rate Location/Type
19:03 41.8770 -75.8714 180° South  Level Estimated
19:04 41.8236 -75.8975 200° South  Level FlightAware Approximate
19:05 41.7685 -75.8784 154° Southeast  Level Estimated
19:06 41.7135 -75.8594 160° South  Level Estimated
19:07 41.6568 -75.8645 184° South  Level FlightAware Approximate
19:08 41.6019 -75.8448 159° South  Level Estimated
19:09 41.5479 -75.8211 162° South  Level FlightAware Approximate
19:10 41.4929 -75.8015 153° Southeast  Level Estimated
19:11 41.4380 -75.7821 161° South  Level Estimated
19:12 41.3858 -75.7519 157° South  Level FlightAware Approximate
19:13 41.3337 -75.7219 157° South  Level FlightAware Approximate
19:14 41.2815 -75.6918 157° South  Level FlightAware Approximate
19:15 41.2263 -75.6738 162° South  Level Estimated
19:16 41.1727 -75.6484 160° South  Level FlightAware Approximate
19:17 41.1192 -75.6230 160° South  Level FlightAware Approximate
19:18 41.0657 -75.5977 160° South  Level FlightAware Approximate
19:19 41.0121 -75.5724 160° South  Level FlightAware Approximate
19:20 40.9566 -75.5560 163° South  Level Estimated
19:21 40.9027 -75.5321 161° South  Level FlightAware Approximate
19:22 40.8488 -75.5083 162° South  Level FlightAware Approximate
19:23 40.7949 -75.4845 162° South  Level FlightAware Approximate
19:24 40.7410 -75.4607 162° South  Level FlightAware Approximate
19:25 40.6852 -75.4464 190° South  Level Estimated
19:26 40.6297 -75.4625 192° South  Level FlightAware Approximate
19:27 40.5741 -75.4786 192° South  Level FlightAware Approximate
19:27 40.6000 -75.4833 205° Southwest 187 215 6,500  Level Philadelphia TRACON
19:28 40.5186 -75.4946 192° South  Level FlightAware Approximate
19:28 40.5333 -75.5000 191° South 167 192 5,100  Level Philadelphia TRACON
19:29 40.4642 -75.4731 187° South  Level Estimated
19:29 40.4833 -75.5000 180° South 164 189 5,100  Level Philadelphia TRACON
19:30 40.4098 -75.4515 190° South  Level Estimated
19:30 40.4500 -75.5167 201° Southwest 169 194 5,100  Level Philadelphia TRACON
19:31 40.3583 -75.4833 205° Southwest  Level FlightAware Approximate
19:31 40.4000 -75.5167 180° South 170 196 5,100  Level Philadelphia TRACON
19:32 40.3069 -75.5150 205° Southwest  Level FlightAware Approximate
19:32 40.3667 -75.5333 201° Southwest 168 193 5,000  Level Philadelphia TRACON
19:33 40.3167 -75.5500 194° South 169 194 5,000  Level Philadelphia TRACON
19:34 40.2667 -75.5833 207° Southwest 168 193 5,000  Level Philadelphia TRACON
19:35 40.2333 -75.5333 131° Southeast 249 287 5,000 -300 Level Philadelphia TRACON
19:36 40.2500 -75.4667 72° East 251 289 4,500 -900 Descending Philadelphia TRACON
19:37 40.2667 -75.3667 78° East 242 278 3,400 -720 Descending Philadelphia TRACON
19:38 40.2667 -75.3000 90° East 163 188 3,000 -240 Descending Philadelphia TRACON
19:39 40.2333 -75.3167 201° Southwest 140 161 3,000  Level Philadelphia TRACON
19:40 40.2000 -75.3000 159° South 150 173 3,000  Level Philadelphia TRACON
19:41 40.1500 -75.3167 194° South 143 165 3,000  Level Philadelphia TRACON
19:42 40.1167 -75.3333 201° Southwest 141 162 3,000  Level Philadelphia TRACON
19:43 40.0833 -75.3333 180° South 145 167 3,000  Level Philadelphia TRACON
19:44 40.0333 -75.3167 166° South 154 177 3,000 -300 Level Philadelphia TRACON
19:45 40.0000 -75.3000 159° South 148 170 2,500 -720 Descending Philadelphia TRACON
19:46 39.9667 -75.2833 159° South 147 169 1,600 -780 Descending Philadelphia TRACON
19:47 39.9333 -75.2667 150° Southeast 115 132 1,000 -600 Descending Philadelphia TRACON
19:48 39.8976 -75.2565 150° Southeast  Level FlightAware Approximate
19:50 39.8667 -75.2333 150° Southeast  Level FlightAware Approximate
19:57 39.8722 -75.2409 150° Southeast  Level Estimated